Time;durP1;ratioP1;P1;durP2;ratioP2;P2;SDS_P1;SDS_P2;PMS_P1;PMS_P2;Temp;Humidity;BMP_temperature;BMP_pressure;BME280_temperature;BME280_humidity;BME280_pressure;Samples;Min_cycle;Max_cycle;Signal;HPM_P1;HPM_P2
2023/07/15 00:01:20;;;;;;;2.30;1.98;;;19.40;99.40;;;19.37;94.58;96761.66;5012792;28;20103;-37
2023/07/15 00:03:47;;;;;;;2.70;2.00;;;19.40;99.50;;;19.37;93.28;96759.00;5009382;28;20064;-38
2023/07/15 00:06:13;;;;;;;3.40;2.47;;;19.40;99.20;;;19.39;92.05;96759.72;5011095;28;20037;-38
2023/07/15 00:08:39;;;;;;;2.50;2.30;;;19.40;99.10;;;19.42;92.11;96756.78;5014038;28;20386;-37
2023/07/15 00:11:09;;;;;;;2.70;2.10;;;19.40;99.10;;;19.43;93.18;96758.47;5011505;28;20040;-37
2023/07/15 00:13:35;;;;;;;4.28;2.58;;;19.40;99.30;;;19.45;92.30;96767.22;5011023;28;20478;-37
2023/07/15 00:16:02;;;;;;;2.90;2.10;;;19.40;99.20;;;19.43;91.67;96762.03;5010482;28;20036;-37
2023/07/15 00:18:28;;;;;;;4.15;2.40;;;19.40;99.20;;;19.39;92.27;96755.22;5015268;28;20022;-37
2023/07/15 00:20:53;;;;;;;3.78;2.10;;;19.50;99.40;;;19.45;93.72;96772.56;5004507;28;20034;-37
2023/07/15 00:23:22;;;;;;;3.42;2.08;;;19.40;99.60;;;19.39;93.92;96760.56;5012961;28;20532;-37
2023/07/15 00:25:50;;;;;;;3.47;2.40;;;19.40;99.80;;;19.39;94.11;96773.09;5013969;28;20029;-37
2023/07/15 00:28:20;;;;;;;5.50;2.40;;;19.40;99.80;;;19.28;93.67;96749.91;5018316;28;20025;-37
2023/07/15 00:30:54;;;;;;;4.20;2.05;;;19.40;99.80;;;19.36;92.92;96760.84;5016121;28;20124;-37
2023/07/15 00:33:20;;;;;;;2.67;2.00;;;19.30;99.70;;;19.36;93.89;96759.97;5022645;28;20632;-38
2023/07/15 00:35:47;;;;;;;2.58;2.20;;;19.30;99.90;;;19.35;93.51;96769.81;5014380;28;20536;-37
2023/07/15 00:38:13;;;;;;;3.13;2.10;;;19.40;99.90;;;19.29;93.50;96756.97;5011934;28;20026;-37
2023/07/15 00:40:44;;;;;;;2.95;1.90;;;19.30;99.90;;;19.34;93.20;96762.75;5017018;28;20029;-37
2023/07/15 00:43:54;;;;;;;3.47;2.13;;;19.30;99.90;;;19.33;92.91;96768.25;5032778;28;20549;-37
2023/07/15 00:46:22;;;;;;;3.13;2.30;;;19.30;99.90;;;19.34;92.73;96764.59;5017103;28;20505;-37
2023/07/15 00:49:18;;;;;;;2.40;1.80;;;19.30;99.90;;;19.31;94.13;96770.19;5017797;28;20351;-37
2023/07/15 00:52:13;;;;;;;3.17;2.00;;;19.30;99.90;;;19.25;95.42;96775.06;5015088;28;20044;-37
2023/07/15 00:54:42;;;;;;;2.60;1.95;;;19.30;99.90;;;19.22;96.37;96780.66;5014714;28;20041;-37
2023/07/15 00:57:11;;;;;;;3.22;2.10;;;19.20;99.90;;;19.18;96.67;96765.84;5016249;28;20029;-37
2023/07/15 00:59:39;;;;;;;3.33;2.33;;;19.20;99.90;;;19.14;96.16;96764.41;5018450;28;20040;-37
2023/07/15 01:02:05;;;;;;;3.15;2.13;;;19.20;99.90;;;19.13;96.06;96768.06;5017235;28;20045;-37
2023/07/15 01:04:31;;;;;;;3.20;2.35;;;19.10;99.90;;;19.11;97.19;96764.63;5018754;28;20033;-37
2023/07/15 01:06:56;;;;;;;3.92;2.33;;;19.10;99.90;;;19.09;96.92;96771.94;5019195;28;20313;-37
2023/07/15 01:09:25;;;;;;;4.82;2.17;;;19.10;99.90;;;19.07;96.17;96764.03;5019001;28;20108;-38
2023/07/15 01:11:50;;;;;;;4.85;2.28;;;19.10;99.90;;;19.06;96.63;96766.88;5015093;28;20076;-37
2023/07/15 01:14:16;;;;;;;2.90;2.13;;;19.10;99.90;;;19.06;96.36;96767.69;5018369;28;20461;-37
2023/07/15 01:16:42;;;;;;;2.80;2.20;;;19.10;99.90;;;19.07;96.86;96763.19;5016847;28;20041;-37
2023/07/15 01:19:08;;;;;;;2.97;2.20;;;19.10;99.90;;;19.06;98.67;96765.03;5014816;28;20402;-37
2023/07/15 01:21:34;;;;;;;2.55;2.28;;;19.10;99.90;;;19.05;99.21;96757.97;5014285;28;20026;-37
2023/07/15 01:24:03;;;;;;;2.83;2.13;;;19.10;99.90;;;19.06;99.28;96761.53;5016393;28;20434;-37
2023/07/15 01:26:31;;;;;;;5.90;2.58;;;19.10;99.90;;;19.02;100.00;96755.56;5021389;28;20359;-37
2023/07/15 01:28:56;;;;;;;3.45;2.20;;;19.10;99.90;;;19.00;99.31;96757.50;5017935;28;20393;-37
2023/07/15 01:31:22;;;;;;;4.22;2.17;;;19.00;99.90;;;18.99;99.39;96754.97;5019860;28;20559;-37
2023/07/15 01:33:48;;;;;;;3.50;2.45;;;19.10;99.90;;;19.01;100.00;96761.88;5018591;28;20029;-37
2023/07/15 01:36:14;;;;;;;2.92;2.05;;;19.00;99.90;;;18.98;100.00;96758.59;5018245;28;20041;-37
2023/07/15 01:38:40;;;;;;;2.75;2.38;;;19.00;99.90;;;18.96;100.00;96752.53;5017929;28;20037;-37
2023/07/15 01:41:06;;;;;;;3.05;2.15;;;19.00;99.90;;;18.93;100.00;96752.78;5017518;28;20312;-37
2023/07/15 01:43:32;;;;;;;6.15;2.08;;;18.90;99.90;;;18.93;100.00;96755.47;5024629;28;20036;-37
2023/07/15 01:45:58;;;;;;;4.15;1.95;;;18.90;99.90;;;18.93;100.00;96758.13;5022909;28;20448;-37
2023/07/15 01:48:25;;;;;;;2.65;2.20;;;18.90;99.90;;;18.93;100.00;96748.28;5025601;28;20396;-37
2023/07/15 01:50:51;;;;;;;3.03;2.20;;;19.00;99.90;;;19.01;100.00;96756.53;5016110;28;20022;-37
2023/07/15 01:53:17;;;;;;;2.22;1.92;;;19.00;99.90;;;19.03;100.00;96753.75;5021375;28;20037;-37
2023/07/15 01:55:43;;;;;;;2.63;2.00;;;19.00;99.90;;;18.88;100.00;96729.13;5023176;28;20112;-37
2023/07/15 01:58:09;;;;;;;3.03;2.15;;;19.00;99.90;;;18.97;100.00;96748.88;5020973;28;20037;-37
2023/07/15 02:00:35;;;;;;;3.30;2.10;;;19.00;99.90;;;18.96;100.00;96745.38;5025595;28;20033;-37
2023/07/15 02:03:00;;;;;;;3.55;2.13;;;19.00;99.90;;;18.99;100.00;96742.47;5022170;28;20025;-37
2023/07/15 02:05:26;;;;;;;3.95;2.10;;;19.00;99.90;;;19.00;100.00;96741.47;5022607;28;20028;-37
2023/07/15 02:07:52;;;;;;;3.17;2.13;;;19.00;99.90;;;19.04;100.00;96740.25;5023361;28;20449;-37
2023/07/15 02:10:18;;;;;;;5.13;1.83;;;19.10;99.90;;;19.06;99.07;96742.81;5026093;28;20022;-37
2023/07/15 02:12:44;;;;;;;2.15;1.90;;;19.10;99.90;;;19.07;98.17;96731.97;5022674;28;20029;-37
2023/07/15 02:15:10;;;;;;;1.77;1.67;;;19.10;99.90;;;19.19;95.98;96734.63;5023011;28;20033;-37
2023/07/15 02:17:36;;;;;;;3.45;1.98;;;19.20;99.90;;;19.34;93.34;96740.53;5024665;28;20363;-37
2023/07/15 02:20:05;;;;;;;2.53;1.90;;;19.30;99.90;;;19.41;92.44;96728.34;5007695;28;20616;-38
2023/07/15 02:22:31;;;;;;;2.50;1.75;;;19.40;99.90;;;19.46;91.81;96732.31;5017243;28;20040;-37
2023/07/15 02:24:56;;;;;;;4.45;2.10;;;19.50;99.90;;;19.59;88.43;96729.47;5024530;28;20326;-38
2023/07/15 02:27:22;;;;;;;3.08;1.70;;;19.50;99.90;;;19.63;87.27;96722.03;5022530;28;20037;-37
2023/07/15 02:29:48;;;;;;;4.53;1.92;;;19.70;99.90;;;19.79;86.68;96721.63;5019917;28;20063;-37
2023/07/15 02:32:35;;;;;;;2.08;1.88;;;19.80;99.90;;;19.83;86.70;96720.41;5018005;28;20045;-37
2023/07/15 02:35:03;;;;;;;4.95;1.80;;;19.80;99.90;;;19.87;86.01;96716.47;5022340;28;20060;-38
2023/07/15 02:37:29;;;;;;;2.25;1.80;;;19.80;99.90;;;19.91;85.22;96725.94;5019672;28;20065;-35
2023/07/15 02:39:55;;;;;;;2.35;1.90;;;19.90;99.90;;;19.99;83.51;96726.13;5018571;28;20106;-36
2023/07/15 02:42:20;;;;;;;3.55;2.17;;;19.90;99.90;;;20.05;83.09;96727.44;5017210;28;20240;-39
2023/07/15 02:44:46;;;;;;;3.63;2.00;;;20.00;99.90;;;20.09;83.19;96720.81;5022351;28;20551;-36
2023/07/15 02:47:12;;;;;;;2.63;1.92;;;20.00;99.90;;;20.15;82.18;96722.97;5017721;28;20038;-37
2023/07/15 02:49:37;;;;;;;4.78;2.10;;;20.10;99.90;;;20.23;81.93;96722.31;5022506;28;20041;-36
2023/07/15 02:52:04;;;;;;;3.60;2.20;;;20.20;99.90;;;20.26;82.39;96723.84;5019789;28;20440;-37
2023/07/15 02:54:29;;;;;;;3.42;1.95;;;20.20;99.90;;;20.27;82.40;96720.22;5019767;28;20037;-36
2023/07/15 02:56:56;;;;;;;2.63;1.83;;;20.20;99.90;;;20.28;82.49;96722.75;5016449;28;20104;-38
2023/07/15 02:59:22;;;;;;;2.63;1.90;;;20.20;99.90;;;20.32;82.52;96724.19;5016415;28;20060;-36
2023/07/15 03:01:48;;;;;;;1.98;1.73;;;20.30;99.90;;;20.29;83.38;96721.75;5017786;28;20053;-36
2023/07/15 03:04:13;;;;;;;3.00;2.08;;;20.30;99.90;;;20.32;82.33;96726.03;5013400;28;20040;-36
2023/07/15 03:06:41;;;;;;;2.20;2.00;;;20.30;99.90;;;20.35;81.99;96715.88;5015678;28;20033;-36
2023/07/15 03:09:07;;;;;;;3.35;2.10;;;20.30;99.80;;;20.36;81.39;96719.41;5016213;28;20053;-36
2023/07/15 03:11:33;;;;;;;2.67;1.80;;;20.30;99.70;;;20.29;83.64;96723.59;5016385;28;20624;-36
2023/07/15 03:13:58;;;;;;;2.38;1.90;;;20.30;99.90;;;20.21;85.56;96729.63;5013979;28;20109;-37
2023/07/15 03:16:24;;;;;;;2.70;1.77;;;20.20;99.90;;;20.07;86.68;96719.28;5018009;28;20052;-37
2023/07/15 03:18:50;;;;;;;4.05;1.98;;;20.10;99.90;;;20.03;87.77;96735.59;5017651;28;20037;-36
2023/07/15 03:21:15;;;;;;;1.95;1.75;;;20.00;99.90;;;19.91;88.67;96720.56;5015333;28;20048;-37
2023/07/15 03:23:42;;;;;;;3.35;1.98;;;19.90;99.90;;;19.84;89.43;96727.44;5016406;28;20042;-37
2023/07/15 03:26:07;;;;;;;2.70;2.03;;;19.90;99.90;;;19.75;90.51;96720.19;5013942;28;20025;-36
2023/07/15 03:28:33;;;;;;;1.95;1.75;;;19.70;99.90;;;19.68;91.97;96725.19;5017716;28;20516;-36
2023/07/15 03:30:59;;;;;;;2.83;1.85;;;19.70;99.90;;;19.61;93.07;96729.34;5015545;28;20025;-37
2023/07/15 03:33:24;;;;;;;2.35;1.80;;;19.60;99.90;;;19.54;95.42;96720.13;5013951;28;20068;-36
2023/07/15 03:35:50;;;;;;;5.80;2.15;;;19.60;99.90;;;19.46;97.08;96718.13;5017799;28;20025;-38
2023/07/15 03:38:16;;;;;;;2.40;1.75;;;19.40;99.90;;;19.40;97.66;96721.31;5013180;28;20444;-36
2023/07/15 03:40:42;;;;;;;2.10;1.73;;;19.40;99.90;;;19.34;98.75;96719.97;5016195;28;20022;-36
2023/07/15 03:43:07;;;;;;;2.33;1.88;;;19.30;99.90;;;19.30;99.51;96717.72;5017203;28;20494;-36
2023/07/15 03:45:33;;;;;;;2.90;1.98;;;19.30;99.90;;;19.29;98.92;96718.66;5015847;28;20374;-36
2023/07/15 03:47:59;;;;;;;2.20;2.00;;;19.30;99.90;;;19.25;100.00;96720.75;5019179;28;20071;-37
2023/07/15 03:50:24;;;;;;;2.47;1.60;;;19.20;99.90;;;19.16;100.00;96706.31;5017591;28;20410;-37
2023/07/15 03:52:50;;;;;;;2.22;1.88;;;19.30;99.90;;;19.16;100.00;96725.03;5017748;28;20065;-37
2023/07/15 03:55:16;;;;;;;4.22;1.95;;;19.20;99.90;;;19.24;99.88;96730.59;5011906;28;20086;-36
2023/07/15 03:57:42;;;;;;;2.83;2.15;;;19.20;99.90;;;19.30;99.32;96720.38;5017334;28;20040;-36
2023/07/15 04:00:17;;;;;;;2.35;2.00;;;19.30;99.90;;;19.32;99.64;96718.41;5012545;28;20029;-36
2023/07/15 04:02:44;;;;;;;2.30;1.90;;;19.30;99.90;;;19.33;100.00;96714.78;5017465;28;20033;-36
2023/07/15 04:05:11;;;;;;;3.13;2.08;;;19.30;99.90;;;19.35;99.76;96705.66;5016251;28;20056;-36
2023/07/15 04:07:37;;;;;;;2.17;1.98;;;19.40;99.90;;;19.40;98.42;96711.47;5014698;28;20029;-36
2023/07/15 04:10:03;;;;;;;4.75;2.28;;;19.40;99.90;;;19.46;98.05;96715.44;5016582;28;20090;-36
2023/07/15 04:12:29;;;;;;;2.67;2.10;;;19.40;99.90;;;19.52;97.42;96714.91;5013755;28;20033;-36
2023/07/15 04:14:55;;;;;;;3.33;2.25;;;19.50;99.90;;;19.61;97.03;96715.97;5019021;28;20048;-36
2023/07/15 04:17:20;;;;;;;2.88;2.00;;;19.60;99.90;;;19.67;97.47;96712.78;5016564;28;20040;-36
2023/07/15 04:19:46;;;;;;;2.72;2.28;;;19.70;99.90;;;19.72;97.36;96707.03;5016872;28;20037;-35
2023/07/15 04:22:13;;;;;;;3.42;2.10;;;19.70;99.90;;;19.80;96.64;96705.44;5015380;28;20107;-35
2023/07/15 04:24:38;;;;;;;2.38;2.15;;;19.80;99.90;;;19.90;96.28;96701.97;5018604;28;20113;-36
2023/07/15 04:27:04;;;;;;;2.95;2.47;;;19.90;99.90;;;19.98;94.54;96696.81;5010956;28;20377;-37
2023/07/15 04:29:31;;;;;;;4.97;2.40;;;20.00;99.90;;;20.12;93.32;96704.50;5013480;28;20041;-36
2023/07/15 04:31:57;;;;;;;3.78;2.40;;;20.10;99.90;;;20.21;92.67;96705.53;5019371;28;20108;-36
2023/07/15 04:34:23;;;;;;;3.47;2.30;;;20.20;99.90;;;20.29;92.03;96707.53;5018679;28;21546;-36
2023/07/15 04:36:49;;;;;;;5.53;2.63;;;20.30;99.90;;;20.37;91.35;96713.91;5017889;28;20037;-36
2023/07/15 04:39:15;;;;;;;3.63;2.08;;;20.30;99.90;;;20.41;89.65;96701.13;5015274;28;20127;-36
2023/07/15 04:41:41;;;;;;;2.90;2.47;;;20.40;99.90;;;20.50;89.38;96699.47;5016364;28;20448;-36
2023/07/15 04:44:07;;;;;;;2.15;1.92;;;20.50;99.90;;;20.58;88.38;96705.84;5016091;28;20042;-37
2023/07/15 04:46:32;;;;;;;2.15;1.80;;;20.60;99.90;;;20.63;87.71;96710.78;5017791;28;20513;-36
2023/07/15 04:48:58;;;;;;;2.28;1.83;;;20.60;99.90;;;20.67;87.54;96714.88;5016969;28;20036;-36
2023/07/15 04:51:24;;;;;;;2.85;1.98;;;20.70;99.90;;;20.71;86.43;96718.16;5013505;28;20513;-37
2023/07/15 04:53:50;;;;;;;5.40;2.20;;;20.70;99.90;;;20.76;85.86;96715.91;5004781;28;20064;-36
2023/07/15 04:56:15;;;;;;;2.33;2.05;;;20.80;99.90;;;20.83;85.41;96718.91;5011559;28;20778;-36
2023/07/15 04:58:41;;;;;;;2.47;2.00;;;20.80;99.90;;;20.91;84.90;96713.72;5017970;28;20040;-37
2023/07/15 05:01:07;;;;;;;2.50;2.00;;;20.90;99.90;;;21.01;83.73;96721.75;5014940;28;20064;-36
2023/07/15 05:03:33;;;;;;;2.70;2.28;;;20.90;99.90;;;21.10;82.25;96732.50;5016676;28;20511;-38
2023/07/15 05:05:59;;;;;;;3.70;2.20;;;21.00;99.90;;;21.14;83.16;96720.53;5015430;28;20033;-36
2023/07/15 05:08:24;;;;;;;2.80;2.25;;;21.10;99.90;;;21.19;82.43;96725.44;5012571;28;20045;-36
2023/07/15 05:10:51;;;;;;;2.45;1.90;;;21.20;99.90;;;21.28;80.01;96735.38;5009732;28;20037;-36
2023/07/15 05:13:17;;;;;;;4.07;2.20;;;21.20;99.90;;;21.36;78.10;96723.94;5012556;28;20494;-36
2023/07/15 05:15:43;;;;;;;4.78;2.10;;;21.30;99.90;;;21.43;76.68;96733.09;5010633;28;20061;-37
2023/07/15 05:18:10;;;;;;;3.47;2.10;;;21.40;99.60;;;21.51;76.95;96735.09;5014291;28;20033;-36
2023/07/15 05:20:37;;;;;;;2.63;2.20;;;21.50;99.50;;;21.59;75.54;96732.56;5015100;28;20037;-36
2023/07/15 05:23:04;;;;;;;2.90;2.10;;;21.60;99.20;;;21.68;74.47;96733.56;5014680;28;20457;-36
2023/07/15 05:25:31;;;;;;;3.17;2.22;;;21.70;99.00;;;21.80;73.57;96739.59;5016589;28;20029;-38
2023/07/15 05:27:58;;;;;;;2.33;1.70;;;21.70;98.70;;;21.98;73.42;96740.56;5013229;28;20056;-38
2023/07/15 05:30:24;;;;;;;3.67;1.80;;;21.80;98.80;;;22.11;70.44;96721.50;5014659;28;20049;-37
2023/07/15 05:32:51;;;;;;;2.35;1.80;;;22.00;98.30;;;22.40;68.70;96723.28;5019148;28;20083;-37
2023/07/15 05:35:17;;;;;;;2.85;1.77;;;22.20;97.90;;;22.86;66.82;96724.16;5016816;28;20048;-37
2023/07/15 05:37:43;;;;;;;4.00;1.63;;;22.50;97.50;;;23.39;62.97;96731.50;5014598;28;20485;-36
2023/07/15 05:40:10;;;;;;;2.67;2.10;;;22.80;96.90;;;23.69;59.86;96740.19;5013943;28;20029;-37
2023/07/15 05:42:39;;;;;;;2.67;1.83;;;23.10;95.90;;;23.77;59.53;96737.56;5015721;28;20140;-37
2023/07/15 05:45:06;;;;;;;2.88;1.98;;;23.30;95.50;;;23.66;59.68;96739.66;5016348;28;20120;-37
2023/07/15 05:47:32;;;;;;;3.03;2.08;;;23.40;95.30;;;23.66;59.93;96740.50;5017545;28;20026;-37
2023/07/15 05:49:57;;;;;;;2.78;2.03;;;23.40;95.00;;;23.68;60.02;96743.03;5013543;28;20433;-39
2023/07/15 05:52:24;;;;;;;2.95;2.00;;;23.50;94.90;;;23.63;60.37;96722.84;5014535;28;20970;-37
2023/07/15 05:54:50;;;;;;;3.17;1.70;;;23.60;94.90;;;23.82;59.52;96740.66;5012741;28;20175;-37
2023/07/15 05:57:15;;;;;;;2.72;1.75;;;23.60;94.60;;;23.93;59.04;96744.13;5002526;28;20976;-37
2023/07/15 05:59:41;;;;;;;2.78;2.05;;;23.80;94.40;;;23.88;57.93;96706.06;5009108;28;20477;-37
2023/07/15 06:02:07;;;;;;;2.22;2.03;;;23.90;94.00;;;24.05;58.25;96718.63;5009103;28;20120;-37
2023/07/15 06:04:32;;;;;;;2.65;2.10;;;24.00;94.20;;;24.25;56.89;96715.75;5014393;28;20053;-37
2023/07/15 06:06:58;;;;;;;2.17;1.98;;;24.10;93.60;;;24.38;57.16;96722.38;5012394;28;20036;-37
2023/07/15 06:09:24;;;;;;;4.35;2.08;;;24.30;93.70;;;24.50;56.25;96722.13;5012342;28;20030;-37
2023/07/15 06:11:49;;;;;;;2.25;1.83;;;24.40;93.30;;;24.61;56.07;96716.47;5011939;28;20063;-37
2023/07/15 06:14:15;;;;;;;2.78;1.85;;;24.50;93.20;;;24.71;55.46;96721.72;5007733;28;20041;-37
2023/07/15 06:16:41;;;;;;;3.13;2.38;;;24.60;93.00;;;24.80;53.71;96715.38;5015019;28;20127;-37
2023/07/15 06:19:06;;;;;;;3.90;2.00;;;24.70;92.30;;;24.90;53.42;96709.84;5009263;28;20493;-37
2023/07/15 06:21:32;;;;;;;2.42;1.83;;;24.70;92.10;;;24.99;52.85;96711.56;5012113;28;20061;-37
2023/07/15 06:23:58;;;;;;;2.30;1.75;;;24.90;91.90;;;25.13;52.90;96710.91;5009639;28;20083;-37
2023/07/15 06:26:24;;;;;;;3.65;2.20;;;25.00;91.90;;;25.29;49.34;96699.34;5003022;28;20620;-37
2023/07/15 06:28:49;;;;;;;2.70;2.22;;;25.10;90.80;;;25.45;50.41;96698.53;5012095;28;20026;-37
2023/07/15 06:31:15;;;;;;;2.80;2.20;;;25.30;90.60;;;25.62;49.78;96693.97;5011411;28;20033;-37
2023/07/15 06:33:41;;;;;;;3.83;2.33;;;25.40;90.50;;;25.78;48.99;96695.00;5018277;28;20037;-37
2023/07/15 06:36:07;;;;;;;2.58;1.60;;;25.60;90.20;;;25.95;48.59;96688.63;5011970;28;20053;-37
2023/07/15 06:38:33;;;;;;;2.65;1.95;;;25.70;89.60;;;26.10;46.86;96688.75;5013251;28;20033;-37
2023/07/15 06:40:58;;;;;;;3.67;2.25;;;25.90;87.90;;;26.25;48.17;96691.59;5004542;28;20229;-37
2023/07/15 06:43:24;;;;;;;2.45;1.90;;;26.00;88.00;;;26.43;47.49;96696.78;5013946;28;21514;-37
2023/07/15 06:45:50;;;;;;;2.63;1.92;;;26.20;88.10;;;26.61;47.05;96692.03;5014617;28;20469;-37
2023/07/15 06:48:18;;;;;;;2.75;2.22;;;26.30;88.30;;;26.76;46.98;96692.13;5017232;28;20369;-37
2023/07/15 06:50:44;;;;;;;3.33;2.42;;;26.50;86.70;;;26.87;45.65;96690.91;5014770;28;20679;-37
2023/07/15 06:53:10;;;;;;;2.53;2.10;;;26.60;85.70;;;27.03;46.06;96693.53;5012365;28;20154;-37
2023/07/15 06:55:36;;;;;;;2.00;1.80;;;26.70;85.40;;;27.19;43.83;96698.00;5012924;28;20505;-37
2023/07/15 06:58:02;;;;;;;2.95;2.10;;;26.90;84.20;;;27.32;45.01;96693.91;5009136;28;20108;-37
2023/07/15 07:00:29;;;;;;;2.60;2.15;;;27.00;84.80;;;27.45;43.25;96706.84;5009231;28;20575;-37
2023/07/15 07:02:55;;;;;;;3.17;2.42;;;27.10;82.60;;;27.55;44.26;96692.03;5014183;28;20440;-37
2023/07/15 07:05:21;;;;;;;2.30;2.10;;;27.30;82.80;;;27.76;43.24;96709.47;5012901;28;20034;-37
2023/07/15 07:07:47;;;;;;;1.83;1.70;;;27.50;81.70;;;27.99;43.46;96704.91;5016442;28;20021;-37
2023/07/15 07:10:13;;;;;;;4.88;2.17;;;27.70;81.70;;;28.22;41.91;96684.22;5013731;28;20478;-37
2023/07/15 07:12:39;;;;;;;3.95;2.20;;;28.00;80.70;;;28.59;42.02;96688.75;5016379;28;20042;-37
2023/07/15 07:15:06;;;;;;;3.47;2.10;;;28.30;79.60;;;28.95;40.17;96693.38;5014016;28;20113;-37
2023/07/15 07:17:32;;;;;;;3.33;2.30;;;28.70;77.60;;;29.15;42.63;96684.69;5016571;28;20135;-37
2023/07/15 07:19:58;;;;;;;4.15;2.10;;;28.90;80.50;;;29.06;42.41;96673.06;5016618;28;20027;-37
2023/07/15 07:22:24;;;;;;;2.83;2.00;;;28.90;79.70;;;29.15;40.40;96681.97;5015257;28;20367;-37
2023/07/15 07:24:52;;;;;;;3.65;2.22;;;28.90;76.90;;;29.23;42.17;96696.25;5019165;28;20033;-37
2023/07/15 07:27:18;;;;;;;3.20;1.98;;;28.90;79.80;;;29.31;39.70;96690.69;5005870;28;20080;-37
2023/07/15 07:29:44;;;;;;;3.25;2.25;;;28.90;76.30;;;29.42;42.25;96699.38;5011214;28;20034;-37
2023/07/15 07:32:10;;;;;;;4.15;2.38;;;29.00;80.20;;;29.51;38.09;96703.66;5014140;28;20470;-37
2023/07/15 07:34:35;;;;;;;3.58;2.20;;;29.10;73.00;;;29.53;37.92;96706.19;5011856;28;20051;-37
2023/07/15 07:37:01;;;;;;;2.92;2.20;;;29.20;72.60;;;29.61;38.36;96709.63;5015748;28;20030;-37
2023/07/15 07:39:27;;;;;;;2.92;2.33;;;29.20;72.20;;;29.72;38.12;96710.97;5027020;22;20057;-37
2023/07/15 07:41:54;;;;;;;2.92;2.03;;;29.30;71.90;;;29.84;37.16;96714.88;5033939;28;20507;-37
2023/07/15 07:44:21;;;;;;;2.42;2.08;;;29.40;70.50;;;29.84;38.67;96704.03;5026847;28;20087;-37
2023/07/15 07:46:46;;;;;;;3.13;2.22;;;29.50;72.70;;;29.82;37.64;96702.50;5030369;28;20418;-37
2023/07/15 07:49:12;;;;;;;3.25;2.38;;;29.60;71.30;;;29.93;37.03;96703.88;5031280;28;20530;-37
2023/07/15 07:51:38;;;;;;;2.67;2.00;;;29.70;69.40;;;29.98;38.32;96701.41;5023357;28;20364;-37
2023/07/15 07:54:04;;;;;;;2.53;1.83;;;29.70;70.90;;;30.09;37.71;96695.41;5026350;28;22358;-37
2023/07/15 07:56:30;;;;;;;2.60;2.40;;;29.80;71.80;;;30.17;37.11;96697.19;5029747;28;20068;-37
2023/07/15 07:58:57;;;;;;;3.53;2.40;;;29.90;69.40;;;30.16;37.75;96699.03;5029294;28;20056;-37
2023/07/15 08:01:27;;;;;;;2.92;2.17;;;29.80;70.00;;;30.19;37.58;96701.38;5021669;28;20254;-37
2023/07/15 08:03:55;;;;;;;4.30;2.35;;;29.90;70.00;;;30.23;40.43;96699.91;5032906;28;20029;-37
2023/07/15 08:06:23;;;;;;;4.57;2.40;;;29.90;73.80;;;30.43;40.50;96699.25;5023362;28;20920;-37
2023/07/15 08:08:48;;;;;;;2.50;2.30;;;30.10;73.70;;;30.67;37.06;96703.41;5029821;28;20404;-37
2023/07/15 08:11:14;;;;;;;10.10;2.60;;;30.40;70.00;;;30.82;36.95;96693.19;5025995;28;20557;-37
2023/07/15 08:13:40;;;;;;;2.83;2.40;;;30.60;70.00;;;31.08;37.88;96690.81;5028872;28;20021;-37
2023/07/15 08:16:32;;;;;;;2.67;2.40;;;30.80;69.60;;;31.31;35.43;96702.22;5025707;28;20028;-37
2023/07/15 08:18:58;;;;;;;3.20;2.50;;;31.10;66.90;;;31.49;34.39;96690.75;5026317;28;20032;-37
2023/07/15 08:21:26;;;;;;;3.95;2.60;;;31.20;65.10;;;31.63;35.04;96690.81;5027034;28;20543;-37
2023/07/15 08:23:52;;;;;;;2.85;2.38;;;31.40;65.40;;;31.75;35.52;96700.88;5029132;28;20060;-37
2023/07/15 08:26:17;;;;;;;2.85;2.20;;;31.50;65.20;;;31.78;34.16;96708.66;5024835;28;20052;-37
2023/07/15 08:28:43;;;;;;;4.03;2.80;;;31.50;63.40;;;31.68;34.24;96705.47;5026736;28;20120;-37
2023/07/15 08:31:09;;;;;;;3.75;2.45;;;31.50;63.90;;;31.63;34.45;96710.72;5026706;28;20029;-37
2023/07/15 08:33:34;;;;;;;2.47;2.28;;;31.40;63.60;;;31.50;34.60;96688.91;5030263;28;20048;-37
2023/07/15 08:36:00;;;;;;;2.50;2.10;;;31.40;64.30;;;31.61;34.73;96701.06;5032406;28;20040;-37
2023/07/15 08:38:26;;;;;;;2.95;2.15;;;31.40;64.00;;;31.69;34.52;96704.44;5026745;28;20071;-37
2023/07/15 08:41:00;;;;;;;3.00;2.38;;;31.40;63.50;;;31.74;37.07;96701.91;5028281;28;20044;-37
2023/07/15 08:43:28;;;;;;;2.40;2.20;;;31.50;67.40;;;31.85;34.58;96702.34;5015305;28;20029;-37
2023/07/15 08:45:59;;;;;;;2.95;2.40;;;31.60;64.70;;;31.97;34.04;96706.13;5027134;28;20082;-37
2023/07/15 08:48:26;;;;;;;3.38;2.40;;;31.70;63.00;;;32.05;34.86;96700.53;5024824;28;20029;-37
2023/07/15 08:50:56;;;;;;;3.05;2.30;;;31.90;64.30;;;32.12;33.68;96705.94;5028291;28;20041;-37
2023/07/15 08:53:27;;;;;;;4.13;2.42;;;31.90;62.60;;;32.22;33.89;96709.09;5021983;28;20170;-37
2023/07/15 08:55:56;;;;;;;3.95;2.53;;;32.00;62.00;;;32.32;34.07;96706.81;5020668;28;22167;-37
2023/07/15 08:58:24;;;;;;;4.13;2.47;;;32.10;62.80;;;32.31;34.42;96693.38;5019637;28;20160;-37
2023/07/15 09:00:53;;;;;;;2.67;2.28;;;32.20;61.20;;;32.51;32.71;96694.16;5030379;28;20036;-37
2023/07/15 09:03:22;;;;;;;3.55;2.40;;;32.30;60.60;;;32.83;31.47;96704.41;5028771;28;20032;-37
2023/07/15 09:05:48;;;;;;;4.30;2.55;;;32.60;59.30;;;32.97;31.18;96697.84;5033163;28;20035;-37
2023/07/15 09:08:15;;;;;;;2.42;2.22;;;32.80;57.40;;;33.00;30.82;96685.66;5027696;28;20037;-37
2023/07/15 09:10:55;;;;;;;2.88;2.42;;;32.70;56.70;;;33.09;30.53;96685.19;5027096;28;20037;-37
2023/07/15 09:13:28;;;;;;;3.08;2.38;;;32.80;56.80;;;33.16;30.98;96690.66;5021378;28;20757;-37
2023/07/15 09:15:55;;;;;;;2.60;2.30;;;32.80;56.60;;;33.09;30.45;96682.47;5028311;28;20279;-37
2023/07/15 09:18:22;;;;;;;2.95;2.50;;;32.80;56.20;;;32.99;30.75;96690.28;5026745;28;20033;-37
2023/07/15 09:20:49;;;;;;;2.90;2.20;;;32.70;56.40;;;32.95;29.97;96683.59;5027444;28;20027;-37
2023/07/15 09:23:16;;;;;;;3.72;2.25;;;32.60;55.90;;;32.92;30.64;96681.28;5022356;28;20067;-37
2023/07/15 09:25:54;;;;;;;6.60;2.38;;;32.60;55.80;;;32.96;31.50;96678.94;5024003;28;20034;-37
2023/07/15 09:28:23;;;;;;;3.42;2.22;;;32.60;57.30;;;32.95;31.11;96680.00;5023042;28;20053;-37
2023/07/15 09:30:49;;;;;;;3.10;2.35;;;32.70;56.70;;;33.08;30.85;96677.22;5024565;28;20558;-37
2023/07/15 09:33:30;;;;;;;3.47;2.50;;;32.70;56.50;;;33.19;32.63;96673.81;5022256;28;20059;-37
2023/07/15 09:35:56;;;;;;;4.35;2.65;;;32.80;57.30;;;33.17;30.83;96665.03;5027267;28;20517;-37
2023/07/15 09:38:23;;;;;;;4.80;2.42;;;32.90;56.10;;;33.39;31.27;96679.19;5024428;28;20084;-37
2023/07/15 09:40:49;;;;;;;2.85;2.55;;;33.10;56.30;;;33.48;30.46;96682.50;5028317;28;20032;-37
2023/07/15 09:43:16;;;;;;;2.50;2.22;;;33.20;55.50;;;33.62;29.61;96681.34;5032175;28;20052;-37
2023/07/15 09:45:42;;;;;;;4.00;2.13;;;33.30;55.10;;;33.87;29.41;96682.50;5013075;28;20029;-37
2023/07/15 09:48:10;;;;;;;3.10;2.22;;;33.50;55.10;;;33.95;29.17;96687.66;5023358;28;20565;-37
2023/07/15 09:50:39;;;;;;;3.25;2.47;;;33.60;53.60;;;34.09;29.21;96682.94;5021558;28;20743;-38
2023/07/15 09:53:05;;;;;;;3.25;2.53;;;33.70;53.50;;;34.15;29.56;96677.41;5014405;28;20037;-38
2023/07/15 09:55:33;;;;;;;2.92;2.40;;;33.80;54.10;;;34.30;30.44;96679.00;5013327;28;20037;-38
2023/07/15 09:58:24;;;;;;;2.72;2.50;;;33.90;55.30;;;34.36;30.07;96678.91;5016256;28;20036;-38
2023/07/15 10:01:04;;;;;;;3.38;2.20;;;34.00;53.60;;;34.38;28.03;96681.44;5022320;28;20405;-38
2023/07/15 10:03:38;;;;;;;3.45;2.53;;;34.10;51.90;;;34.25;29.19;96670.63;5023266;28;20480;-38
2023/07/15 10:06:05;;;;;;;2.47;2.17;;;34.00;52.40;;;34.20;28.14;96674.03;5024100;28;20062;-38
2023/07/15 10:08:31;;;;;;;3.60;2.30;;;33.90;52.10;;;34.14;29.45;96673.00;5031930;28;20059;-38
2023/07/15 10:10:57;;;;;;;2.50;2.30;;;33.90;54.30;;;34.24;28.87;96664.28;5030316;28;20027;-37
2023/07/15 10:13:23;;;;;;;3.13;2.40;;;33.90;52.80;;;34.20;29.21;96663.06;5029645;28;20076;-37
2023/07/15 10:15:49;;;;;;;3.08;2.33;;;33.90;53.50;;;34.24;28.71;96658.81;5028568;28;20175;-37
2023/07/15 10:18:17;;;;;;;3.00;2.40;;;34.00;52.60;;;34.25;28.46;96637.78;5018393;28;20755;-37